Time;durP1;ratioP1;P1;durP2;ratioP2;P2;SDS_P1;SDS_P2;PMS_P1;PMS_P2;Temp;Humidity;BMP_temperature;BMP_pressure;BME280_temperature;BME280_humidity;BME280_pressure;Samples;Min_cycle;Max_cycle;Signal;HPM_P1;HPM_P2
2023/05/21 00:00:59;;;;;;;11.98;7.07;;;22.20;64.50;;;;;;5054399;28;20389;-84
2023/05/21 00:03:27;;;;;;;9.63;7.10;;;22.10;64.10;;;;;;5054413;28;20045;-85
2023/05/21 00:05:53;;;;;;;11.80;6.90;;;22.10;63.60;;;;;;5053496;28;20386;-84
2023/05/21 00:08:19;;;;;;;9.82;6.90;;;22.10;63.30;;;;;;5054536;28;20021;-83
2023/05/21 00:10:46;;;;;;;11.10;6.45;;;22.10;63.20;;;;;;5053804;28;20021;-84
2023/05/21 00:13:12;;;;;;;12.50;6.57;;;22.10;63.50;;;;;;5053244;28;20021;-84
2023/05/21 00:15:38;;;;;;;10.63;7.30;;;22.10;63.70;;;;;;5053168;28;20036;-85
2023/05/21 00:18:04;;;;;;;9.15;6.35;;;22.10;63.50;;;;;;5052937;28;20389;-84
2023/05/21 00:20:33;;;;;;;9.75;7.05;;;22.10;63.50;;;;;;5053013;28;20496;-83
2023/05/21 00:23:01;;;;;;;10.02;7.75;;;22.10;63.30;;;;;;5053292;28;20029;-82
2023/05/21 00:25:27;;;;;;;10.40;7.65;;;22.10;63.40;;;;;;5053128;28;20021;-83
2023/05/21 00:27:54;;;;;;;8.07;6.88;;;22.00;63.60;;;;;;5053374;28;20021;-84
2023/05/21 00:30:20;;;;;;;8.13;6.60;;;22.00;63.60;;;;;;5052892;28;20075;-84
2023/05/21 00:32:46;;;;;;;9.18;6.95;;;22.00;63.70;;;;;;5034995;28;20033;-83
2023/05/21 00:35:12;;;;;;;12.20;6.85;;;22.00;63.60;;;;;;5053779;28;20022;-76
2023/05/21 00:37:39;;;;;;;13.52;7.63;;;22.00;62.70;;;;;;5052839;28;20111;-76
2023/05/21 00:40:10;;;;;;;13.48;6.82;;;22.00;62.80;;;;;;5052528;28;20104;-76
2023/05/21 00:42:40;;;;;;;8.32;7.00;;;22.10;63.00;;;;;;5052868;28;20021;-76
2023/05/21 00:45:07;;;;;;;10.82;7.07;;;22.00;62.90;;;;;;5052894;28;20112;-76
2023/05/21 00:47:33;;;;;;;9.25;7.60;;;22.10;62.90;;;;;;5052797;28;20512;-76
2023/05/21 00:50:03;;;;;;;11.57;7.05;;;22.10;63.20;;;;;;5052852;28;20058;-76
2023/05/21 00:52:29;;;;;;;8.75;6.85;;;22.10;63.20;;;;;;5034791;28;20500;-76
2023/05/21 00:54:55;;;;;;;10.63;6.85;;;22.10;63.40;;;;;;5052823;28;20022;-84
2023/05/21 00:57:26;;;;;;;16.15;7.40;;;22.10;63.70;;;;;;5053713;28;20390;-84
2023/05/21 00:59:52;;;;;;;10.90;7.63;;;22.00;64.10;;;;;;5051917;28;20462;-85
2023/05/21 01:02:33;;;;;;;11.00;8.40;;;22.10;64.40;;;;;;5052446;28;20136;-86
2023/05/21 01:04:59;;;;;;;16.10;7.90;;;22.00;64.60;;;;;;5052606;28;20018;-85
2023/05/21 01:08:02;;;;;;;10.63;6.75;;;22.00;65.30;;;;;;5054220;28;20373;-85
2023/05/21 01:14:35;;;;;;;11.27;7.38;;;22.00;64.80;;;;;;4951599;29;20091;-85
2023/05/21 01:18:13;;;;;;;9.60;6.72;;;22.00;64.80;;;;;;4914527;29;20066;-85
2023/05/21 01:23:57;;;;;;;10.25;7.55;;;21.90;65.10;;;;;;4842021;29;20079;-84
2023/05/21 01:27:15;;;;;;;8.65;6.90;;;21.90;65.40;;;;;;4858354;29;20151;-84
2023/05/21 01:29:41;;;;;;;8.63;6.47;;;21.90;65.40;;;;;;4855880;29;20043;-84
2023/05/21 01:36:12;;;;;;;11.52;6.55;;;21.90;65.40;;;;;;4932169;29;20042;-85
2023/05/21 01:38:38;;;;;;;9.73;7.75;;;21.90;65.40;;;;;;4953114;29;20502;-84
2023/05/21 01:41:10;;;;;;;9.73;7.47;;;21.90;65.50;;;;;;5004417;28;20033;-85
2023/05/21 01:43:38;;;;;;;8.23;7.25;;;21.90;65.50;;;;;;5055084;28;20105;-84
2023/05/21 01:46:06;;;;;;;11.20;7.30;;;21.90;66.20;;;;;;5054846;28;20389;-82
2023/05/21 01:48:33;;;;;;;8.27;6.93;;;21.90;65.50;;;;;;5054121;28;20025;-85
2023/05/21 01:51:02;;;;;;;11.60;6.85;;;21.90;65.40;;;;;;5054216;28;20036;-84
2023/05/21 01:53:28;;;;;;;9.73;7.20;;;21.90;65.30;;;;;;5052732;28;20114;-85
2023/05/21 01:55:54;;;;;;;10.35;7.13;;;21.90;65.30;;;;;;5053131;28;20029;-85
2023/05/21 01:58:21;;;;;;;11.55;7.03;;;21.90;65.40;;;;;;5052276;28;20033;-86
2023/05/21 02:00:49;;;;;;;13.75;8.05;;;21.90;65.50;;;;;;5052601;28;20017;-86
2023/05/21 02:03:16;;;;;;;21.05;7.95;;;21.90;65.30;;;;;;5034306;28;20079;-84
2023/05/21 02:05:43;;;;;;;13.10;7.55;;;21.90;65.40;;;;;;5054664;28;20013;-85
2023/05/21 02:08:08;;;;;;;7.75;7.00;;;21.90;65.90;;;;;;5055624;28;20180;-85
2023/05/21 02:10:35;;;;;;;8.45;6.78;;;21.80;66.10;;;;;;5055355;28;20044;-85
2023/05/21 02:13:01;;;;;;;15.10;8.50;;;21.70;66.50;;;;;;5056105;28;20025;-85
2023/05/21 02:15:27;;;;;;;12.68;7.53;;;21.70;66.70;;;;;;5036788;28;20109;-85
2023/05/21 02:17:53;;;;;;;10.68;7.78;;;21.60;66.90;;;;;;5034507;28;20124;-85
2023/05/21 02:20:21;;;;;;;10.88;6.93;;;21.60;66.80;;;;;;5035755;28;20052;-83
2023/05/21 02:22:47;;;;;;;10.75;7.63;;;21.60;66.80;;;;;;5035546;28;20068;-82
2023/05/21 02:25:18;;;;;;;9.10;7.35;;;21.60;67.00;;;;;;5035320;28;20068;-83
2023/05/21 02:27:45;;;;;;;8.73;7.38;;;21.60;66.70;;;;;;5034269;28;20029;-83
2023/05/21 02:30:13;;;;;;;7.20;6.50;;;21.60;66.10;;;;;;5035492;28;20113;-83
2023/05/21 02:32:43;;;;;;;13.50;7.28;;;21.60;66.10;;;;;;5035326;28;20025;-83
2023/05/21 02:35:11;;;;;;;12.77;7.45;;;21.60;66.20;;;;;;5035418;28;20025;-83
2023/05/21 02:37:39;;;;;;;13.23;7.78;;;21.60;66.20;;;;;;5034806;28;20065;-84
2023/05/21 02:40:08;;;;;;;9.23;7.40;;;21.60;66.10;;;;;;5035173;28;20017;-85
2023/05/21 02:42:38;;;;;;;7.68;6.85;;;21.60;66.00;;;;;;5037128;28;20435;-84
2023/05/21 02:45:08;;;;;;;9.18;7.15;;;21.50;65.90;;;;;;5036115;28;20494;-85
2023/05/21 02:47:34;;;;;;;9.38;6.82;;;21.50;66.70;;;;;;5036558;28;20067;-83
2023/05/21 02:50:05;;;;;;;13.60;7.97;;;21.40;67.00;;;;;;5035752;28;20080;-83
2023/05/21 03:00:26;;;;;;;11.95;7.45;;;21.20;68.50;;;;;;4976282;28;20537;-84
2023/05/21 03:04:02;;;;;;;;;;;;;;;;;;;;;
2023/05/21 03:06:31;;;;;;;13.98;7.90;;;21.00;69.80;;;;;;4831021;29;20048;-81
2023/05/21 03:12:24;;;;;;;10.63;7.68;;;20.80;70.10;;;;;;4897565;29;20039;-79
2023/05/21 03:21:03;;;;;;;8.82;7.88;;;20.70;70.70;;;;;;5005657;28;20094;-83
2023/05/21 03:23:29;;;;;;;8.30;7.55;;;20.60;71.50;;;;;;5054286;28;20017;-85
2023/05/21 03:25:54;;;;;;;10.77;7.15;;;20.60;71.70;;;;;;5055051;28;20017;-83
2023/05/21 03:28:20;;;;;;;11.55;8.30;;;20.50;71.90;;;;;;5054722;28;20025;-84
2023/05/21 03:30:48;;;;;;;11.15;7.45;;;20.50;72.60;;;;;;5054482;28;20136;-83
2023/05/21 03:33:15;;;;;;;11.35;7.75;;;20.50;72.50;;;;;;5054356;28;20021;-77
2023/05/21 03:35:41;;;;;;;14.15;7.13;;;20.40;72.10;;;;;;5054201;28;20465;-83
2023/05/21 03:38:07;;;;;;;9.52;7.50;;;20.40;72.20;;;;;;5054699;28;20051;-83
2023/05/21 03:40:32;;;;;;;11.90;7.82;;;20.40;72.30;;;;;;5054123;28;20043;-83
2023/05/21 03:42:58;;;;;;;11.27;7.63;;;20.40;72.90;;;;;;5053946;28;20036;-83
2023/05/21 03:45:24;;;;;;;9.50;7.53;;;20.30;73.40;;;;;;5053795;28;20150;-83
2023/05/21 03:47:50;;;;;;;13.07;8.00;;;20.30;73.10;;;;;;5053814;28;20104;-84
2023/05/21 03:50:15;;;;;;;12.50;7.82;;;20.30;73.50;;;;;;5053640;28;20024;-83
2023/05/21 03:52:41;;;;;;;12.18;8.25;;;20.30;73.50;;;;;;5035584;28;20116;-83
2023/05/21 03:55:08;;;;;;;9.48;7.95;;;20.20;74.00;;;;;;5053688;28;20017;-83
2023/05/21 03:57:33;;;;;;;11.38;8.00;;;20.20;74.20;;;;;;5053042;28;20040;-83
2023/05/21 03:59:59;;;;;;;8.63;7.45;;;20.10;74.80;;;;;;5053578;28;20036;-83
2023/05/21 04:02:26;;;;;;;13.35;8.23;;;20.10;74.50;;;;;;5033702;28;20058;-76
2023/05/21 04:04:52;;;;;;;10.93;7.72;;;20.10;74.40;;;;;;5053501;28;20021;-76
2023/05/21 04:07:19;;;;;;;16.50;8.27;;;20.10;74.80;;;;;;5053142;28;20025;-76
2023/05/21 04:09:45;;;;;;;11.68;8.70;;;20.10;74.50;;;;;;5052928;28;20528;-76
2023/05/21 04:12:11;;;;;;;9.38;8.07;;;20.10;75.10;;;;;;5035239;28;20086;-75
2023/05/21 04:14:37;;;;;;;11.88;7.70;;;20.10;75.60;;;;;;5053135;28;20025;-76
2023/05/21 04:17:06;;;;;;;10.80;7.88;;;20.10;75.30;;;;;;5053200;28;20047;-75
2023/05/21 04:19:32;;;;;;;9.93;7.90;;;20.10;74.50;;;;;;5052875;28;20025;-75
2023/05/21 04:21:58;;;;;;;13.80;7.43;;;20.10;75.40;;;;;;5053297;28;20481;-83
2023/05/21 04:24:24;;;;;;;8.70;7.30;;;20.10;75.50;;;;;;5036247;28;20024;-83
2023/05/21 04:26:50;;;;;;;13.00;8.95;;;20.10;74.80;;;;;;5053986;28;20025;-84
2023/05/21 04:29:19;;;;;;;11.15;7.68;;;20.10;75.20;;;;;;5035794;28;20108;-83
2023/05/21 04:31:50;;;;;;;11.60;8.00;;;20.10;75.90;;;;;;5053643;28;20082;-83
2023/05/21 04:34:19;;;;;;;8.93;7.53;;;20.10;76.50;;;;;;5053681;28;20025;-84
2023/05/21 04:44:54;;;;;;;10.48;7.93;;;20.20;77.30;;;;;;4841079;29;20482;-83
2023/05/21 04:55:00;;;;;;;10.02;9.02;;;20.30;77.90;;;;;;4803990;29;20046;-84
2023/05/21 04:57:29;;;;;;;14.55;8.18;;;20.30;78.00;;;;;;4803094;29;20047;-82
2023/05/21 05:00:44;;;;;;;9.35;7.80;;;20.30;77.90;;;;;;4807157;29;20085;-83
2023/05/21 05:04:10;;;;;;;9.10;8.10;;;20.30;78.00;;;;;;4840023;29;20075;-83
2023/05/21 05:06:36;;;;;;;8.30;7.50;;;20.40;77.60;;;;;;4970280;28;20033;-83
2023/05/21 05:09:03;;;;;;;10.60;7.88;;;20.40;76.60;;;;;;5053080;28;20403;-83
2023/05/21 05:11:29;;;;;;;11.18;7.28;;;20.40;75.90;;;;;;5035310;28;20422;-83
2023/05/21 05:13:55;;;;;;;8.80;7.20;;;20.50;75.70;;;;;;5052811;28;20035;-84
2023/05/21 05:16:24;;;;;;;13.88;7.30;;;20.60;75.30;;;;;;5052890;28;20311;-83
2023/05/21 05:18:54;;;;;;;8.45;6.93;;;20.60;75.30;;;;;;5052823;28;20037;-83
2023/05/21 05:21:21;;;;;;;9.02;7.65;;;20.70;75.20;;;;;;5052946;28;20028;-82
2023/05/21 05:23:47;;;;;;;10.55;7.97;;;20.70;75.10;;;;;;5052209;28;20367;-84
2023/05/21 05:26:12;;;;;;;10.02;7.03;;;20.80;74.40;;;;;;5052325;28;20023;-83
2023/05/21 05:28:38;;;;;;;9.60;7.18;;;20.80;73.70;;;;;;5051905;28;20044;-83
2023/05/21 05:31:04;;;;;;;8.93;7.00;;;20.90;73.20;;;;;;5052392;28;20099;-82
2023/05/21 05:33:30;;;;;;;15.60;6.97;;;20.90;72.60;;;;;;5052611;28;20052;-83
2023/05/21 05:35:56;;;;;;;10.88;6.72;;;21.00;72.50;;;;;;5052508;28;20021;-85
2023/05/21 05:38:21;;;;;;;9.07;7.22;;;21.00;72.20;;;;;;5052204;28;20057;-85
2023/05/21 05:40:47;;;;;;;12.07;7.25;;;21.10;71.60;;;;;;5054609;28;20043;-84
2023/05/21 05:43:13;;;;;;;12.23;6.93;;;21.20;71.30;;;;;;5056137;28;20068;-83
2023/05/21 05:45:38;;;;;;;13.15;7.45;;;21.20;70.90;;;;;;5055794;28;20021;-84
2023/05/21 05:48:05;;;;;;;8.65;7.40;;;21.30;70.90;;;;;;5055876;28;20025;-82
2023/05/21 05:50:30;;;;;;;11.30;7.57;;;21.30;72.80;;;;;;5055810;28;20021;-83
2023/05/21 05:52:56;;;;;;;8.52;7.28;;;21.30;73.30;;;;;;5055891;28;20359;-83
2023/05/21 05:55:23;;;;;;;14.10;7.32;;;21.40;73.40;;;;;;5038164;28;20029;-83
2023/05/21 05:57:49;;;;;;;9.63;7.03;;;21.40;73.50;;;;;;5055419;28;20124;-83
2023/05/21 06:00:16;;;;;;;11.20;7.60;;;21.50;74.00;;;;;;5054641;28;20108;-80
2023/05/21 06:02:42;;;;;;;8.00;7.10;;;21.50;74.00;;;;;;5053673;28;20884;-80
2023/05/21 06:05:11;;;;;;;7.95;7.15;;;21.50;73.20;;;;;;5055300;28;20025;-85
2023/05/21 06:07:37;;;;;;;13.70;7.28;;;21.60;71.40;;;;;;5054088;28;20025;-83
2023/05/21 06:10:07;;;;;;;9.35;7.30;;;21.60;70.90;;;;;;5056505;28;20025;-84
2023/05/21 06:12:33;;;;;;;9.73;6.60;;;21.60;71.30;;;;;;5056084;28;20116;-84
2023/05/21 06:14:59;;;;;;;10.63;7.30;;;21.60;70.40;;;;;;5056358;28;20473;-84
2023/05/21 06:17:25;;;;;;;11.55;7.22;;;21.70;70.20;;;;;;5055866;28;20069;-84
2023/05/21 06:19:51;;;;;;;11.18;6.80;;;21.70;70.60;;;;;;5055683;28;20114;-85
2023/05/21 06:22:20;;;;;;;9.25;7.00;;;21.70;70.70;;;;;;5055456;28;20017;-83
2023/05/21 06:32:06;;;;;;;8.07;6.72;;;21.80;69.70;;;;;;4993544;28;20158;-83
2023/05/21 06:35:02;;;;;;;11.02;6.72;;;21.90;68.00;;;;;;4993330;28;20044;-85
2023/05/21 06:38:24;;;;;;;10.05;6.80;;;21.90;67.30;;;;;;4993760;28;20046;-83
2023/05/21 06:41:11;;;;;;;8.90;6.65;;;22.00;67.50;;;;;;4991073;28;20029;-85
2023/05/21 06:50:43;;;;;;;10.10;6.78;;;22.20;65.90;;;;;;4897450;29;20416;-79
2023/05/21 06:53:09;;;;;;;10.27;6.70;;;22.20;65.60;;;;;;4912156;29;20040;-79
2023/05/21 06:55:35;;;;;;;10.48;7.00;;;22.20;66.00;;;;;;4900524;29;20420;-80
2023/05/21 06:58:00;;;;;;;11.75;6.47;;;22.30;65.80;;;;;;5006678;28;20041;-79
2023/05/21 07:00:26;;;;;;;10.13;6.95;;;22.30;66.20;;;;;;5054575;28;20503;-79
2023/05/21 07:02:52;;;;;;;11.13;6.97;;;22.40;66.00;;;;;;5054523;28;20051;-79
2023/05/21 07:05:18;;;;;;;12.05;7.22;;;22.40;65.60;;;;;;5054733;28;20041;-79
2023/05/21 07:07:44;;;;;;;14.77;8.63;;;22.50;64.30;;;;;;5054469;28;20545;-80
2023/05/21 07:10:10;;;;;;;14.27;7.07;;;22.50;64.90;;;;;;5036677;28;20068;-81
2023/05/21 07:12:36;;;;;;;8.10;6.55;;;22.50;64.70;;;;;;5054335;28;20021;-80
2023/05/21 07:15:02;;;;;;;10.38;6.72;;;22.60;64.40;;;;;;5054280;28;20029;-79
2023/05/21 07:17:27;;;;;;;12.18;6.70;;;22.60;63.10;;;;;;5054264;28;20095;-79
2023/05/21 07:19:53;;;;;;;8.50;5.97;;;22.60;63.40;;;;;;5054288;28;20025;-80
2023/05/21 07:22:19;;;;;;;9.13;6.38;;;22.60;62.50;;;;;;5054241;28;20028;-79
2023/05/21 07:24:45;;;;;;;13.52;6.63;;;22.60;63.10;;;;;;5054015;28;20060;-79
2023/05/21 07:27:10;;;;;;;9.60;6.95;;;22.60;63.40;;;;;;5054148;28;20104;-79
2023/05/21 07:29:36;;;;;;;9.45;6.82;;;22.60;63.10;;;;;;5054549;28;20031;-79
2023/05/21 07:32:02;;;;;;;7.05;6.35;;;22.60;63.10;;;;;;5054201;28;20040;-79
2023/05/21 07:34:28;;;;;;;12.35;6.18;;;22.60;63.60;;;;;;5069105;22;20045;-75
2023/05/21 07:36:54;;;;;;;6.95;6.07;;;22.70;64.00;;;;;;5054012;28;20029;-76
2023/05/21 07:39:19;;;;;;;9.20;5.88;;;22.70;64.50;;;;;;5053588;28;20025;-77
2023/05/21 07:41:45;;;;;;;9.93;6.38;;;22.70;63.90;;;;;;5053520;28;20083;-75
2023/05/21 07:44:11;;;;;;;11.98;6.50;;;22.80;64.90;;;;;;5053233;28;20086;-75
2023/05/21 07:46:37;;;;;;;10.18;6.25;;;22.90;63.60;;;;;;5053454;28;20050;-75
2023/05/21 07:49:02;;;;;;;9.50;6.35;;;22.90;63.50;;;;;;5053623;28;20025;-74
2023/05/21 07:51:28;;;;;;;12.60;6.10;;;23.00;64.40;;;;;;5053838;28;20029;-75
2023/05/21 07:53:55;;;;;;;14.18;6.25;;;23.20;62.10;;;;;;5035792;28;20020;-75
2023/05/21 07:56:21;;;;;;;7.18;6.35;;;23.30;61.90;;;;;;5052576;28;20032;-76
2023/05/21 07:58:47;;;;;;;13.70;6.20;;;23.40;60.90;;;;;;5053488;28;20114;-75
2023/05/21 08:01:13;;;;;;;10.50;6.28;;;23.40;60.40;;;;;;5053339;28;20514;-75
2023/05/21 08:03:39;;;;;;;9.85;6.43;;;23.50;60.60;;;;;;5052647;28;20078;-75
2023/05/21 08:06:05;;;;;;;8.75;6.95;;;23.60;60.00;;;;;;5052649;28;20025;-75
2023/05/21 08:08:31;;;;;;;9.90;6.03;;;23.70;59.80;;;;;;5053106;28;20392;-75
2023/05/21 08:10:57;;;;;;;12.95;6.53;;;23.80;59.70;;;;;;5053503;28;20113;-75
2023/05/21 08:13:23;;;;;;;9.10;5.85;;;23.90;59.30;;;;;;5053520;28;20017;-75
2023/05/21 08:15:49;;;;;;;11.50;5.85;;;24.00;59.70;;;;;;5053372;28;20370;-75
2023/05/21 08:18:16;;;;;;;12.77;6.20;;;24.00;59.30;;;;;;5053096;28;20033;-75
2023/05/21 08:20:42;;;;;;;13.93;6.68;;;24.10;58.40;;;;;;5053338;28;20112;-75
2023/05/21 08:23:08;;;;;;;7.65;6.15;;;24.10;59.20;;;;;;5053228;28;20100;-75
2023/05/21 08:25:33;;;;;;;7.60;6.35;;;24.10;60.00;;;;;;5035056;28;20048;-75
2023/05/21 08:27:59;;;;;;;8.57;5.80;;;24.10;60.30;;;;;;5053233;28;20025;-75
2023/05/21 08:30:25;;;;;;;7.47;5.78;;;24.20;59.40;;;;;;5053639;28;20447;-76
2023/05/21 08:32:50;;;;;;;9.75;5.63;;;24.30;59.40;;;;;;5052089;28;20393;-75
2023/05/21 08:35:16;;;;;;;13.45;5.40;;;24.30;57.20;;;;;;5050066;28;20067;-75
2023/05/21 08:37:42;;;;;;;14.00;6.53;;;24.30;56.40;;;;;;5050450;28;20098;-75
2023/05/21 08:40:10;;;;;;;9.07;5.65;;;24.40;56.20;;;;;;5052920;28;20021;-75
2023/05/21 08:42:43;;;;;;;7.97;5.80;;;24.50;56.30;;;;;;5052966;28;20025;-75
2023/05/21 08:45:12;;;;;;;9.65;5.90;;;24.50;57.10;;;;;;5052939;28;20071;-75
2023/05/21 08:47:41;;;;;;;8.52;6.13;;;24.60;55.80;;;;;;5052938;28;20392;-75
2023/05/21 08:50:12;;;;;;;11.23;5.85;;;24.70;56.40;;;;;;5052892;28;20036;-77
2023/05/21 08:52:38;;;;;;;8.45;6.00;;;24.70;55.40;;;;;;5052990;28;20059;-75
2023/05/21 08:55:04;;;;;;;11.52;5.93;;;24.80;54.10;;;;;;5052957;28;20056;-75
2023/05/21 08:57:30;;;;;;;7.68;5.55;;;24.90;54.70;;;;;;5052281;28;20056;-75
2023/05/21 08:59:57;;;;;;;7.55;5.55;;;25.00;54.00;;;;;;5050208;28;20582;-75
2023/05/21 09:02:23;;;;;;;9.95;5.80;;;25.10;53.80;;;;;;5050223;28;20029;-75
2023/05/21 09:04:55;;;;;;;9.90;5.60;;;25.10;53.00;;;;;;5051264;28;20068;-75
2023/05/21 09:07:28;;;;;;;8.40;5.18;;;25.20;52.50;;;;;;5052375;28;20025;-75
2023/05/21 09:09:56;;;;;;;7.10;5.35;;;25.30;52.60;;;;;;5052353;28;20029;-75
2023/05/21 09:12:26;;;;;;;10.02;5.05;;;25.40;54.50;;;;;;5052419;28;20100;-75
2023/05/21 09:14:52;;;;;;;10.65;5.25;;;25.50;49.50;;;;;;5053307;28;20029;-75
2023/05/21 09:17:19;;;;;;;8.73;4.40;;;25.50;52.60;;;;;;5056608;28;20066;-74
2023/05/21 09:20:08;;;;;;;8.45;5.53;;;25.60;50.70;;;;;;5056500;28;20377;-75
2023/05/21 09:22:35;;;;;;;6.47;5.20;;;25.80;50.90;;;;;;5056609;28;20017;-76
2023/05/21 09:25:06;;;;;;;12.60;5.10;;;25.80;50.20;;;;;;5056543;28;20519;-74
2023/05/21 09:27:33;;;;;;;11.65;5.85;;;25.80;51.00;;;;;;5056364;28;20057;-75
2023/05/21 09:29:59;;;;;;;15.98;4.95;;;25.70;49.90;;;;;;5038685;28;20032;-75
2023/05/21 09:32:24;;;;;;;8.68;5.30;;;25.60;50.80;;;;;;5056355;28;20017;-75
2023/05/21 09:34:50;;;;;;;9.27;5.63;;;25.60;51.40;;;;;;5056357;28;20048;-75
2023/05/21 09:37:16;;;;;;;8.88;5.03;;;25.70;51.40;;;;;;5056234;28;20047;-75
2023/05/21 09:39:42;;;;;;;12.25;5.28;;;25.80;51.30;;;;;;5052831;28;20017;-76
2023/05/21 09:42:07;;;;;;;10.90;5.05;;;25.90;52.20;;;;;;5053327;28;20033;-74
2023/05/21 09:44:34;;;;;;;13.57;5.28;;;26.10;50.70;;;;;;5054417;28;20013;-75
2023/05/21 09:47:01;;;;;;;7.88;5.30;;;26.20;50.30;;;;;;5055816;28;20037;-75
2023/05/21 09:49:26;;;;;;;9.27;4.70;;;26.40;50.10;;;;;;5055905;28;20380;-75
2023/05/21 09:51:56;;;;;;;11.13;5.32;;;26.50;49.40;;;;;;5055993;28;20021;-75
2023/05/21 09:54:32;;;;;;;10.65;4.95;;;26.70;50.10;;;;;;5055632;28;20018;-75
2023/05/21 09:57:02;;;;;;;12.57;4.90;;;26.80;50.00;;;;;;5055966;28;20029;-75
2023/05/21 09:59:38;;;;;;;6.72;4.20;;;26.90;48.70;;;;;;5055698;28;20519;-75
2023/05/21 10:02:19;;;;;;;13.18;5.13;;;27.00;46.70;;;;;;5055567;28;20031;-75
2023/05/21 10:04:50;;;;;;;11.07;5.85;;;27.10;48.60;;;;;;5055647;28;20036;-75
2023/05/21 10:07:24;;;;;;;13.25;5.70;;;27.10;48.20;;;;;;5055655;28;20362;-75
2023/05/21 10:09:54;;;;;;;12.93;5.20;;;27.20;47.80;;;;;;5037713;28;20120;-75
2023/05/21 10:12:22;;;;;;;9.57;5.32;;;27.20;46.70;;;;;;5055864;28;20021;-75
2023/05/21 10:14:53;;;;;;;7.75;4.75;;;27.20;46.90;;;;;;5055775;28;20484;-75
2023/05/21 10:17:19;;;;;;;12.77;5.25;;;27.20;46.90;;;;;;5055168;28;20547;-75
2023/05/21 10:19:46;;;;;;;8.35;5.20;;;27.20;45.70;;;;;;5055348;28;20393;-75
2023/05/21 10:22:12;;;;;;;11.75;5.07;;;27.30;46.00;;;;;;5055078;28;20079;-75
2023/05/21 10:24:40;;;;;;;8.18;4.78;;;27.30;47.00;;;;;;5055353;28;20017;-75
2023/05/21 10:27:06;;;;;;;7.93;5.15;;;27.40;46.50;;;;;;5054890;28;20025;-75
2023/05/21 10:29:33;;;;;;;8.55;4.93;;;27.40;46.00;;;;;;5055127;28;20029;-75
2023/05/21 10:32:02;;;;;;;13.30;5.30;;;27.50;45.80;;;;;;5054963;28;20036;-75
2023/05/21 10:34:29;;;;;;;15.63;5.68;;;27.50;45.30;;;;;;5037187;28;20049;-75
2023/05/21 10:36:57;;;;;;;9.98;4.80;;;27.30;45.30;;;;;;5054970;28;20028;-75
2023/05/21 10:39:24;;;;;;;12.57;4.80;;;27.20;45.30;;;;;;5055194;28;20060;-75
2023/05/21 10:42:15;;;;;;;11.32;4.97;;;27.10;46.60;;;;;;5055260;28;20028;-75
2023/05/21 10:45:01;;;;;;;7.07;4.82;;;27.10;46.20;;;;;;5037010;28;20384;-75
2023/05/21 10:47:37;;;;;;;10.60;4.65;;;27.20;46.70;;;;;;5037388;28;20060;-75
2023/05/21 10:50:17;;;;;;;8.65;5.40;;;27.30;46.80;;;;;;5054766;28;20064;-75
2023/05/21 10:53:01;;;;;;;8.70;4.93;;;27.50;46.70;;;;;;5054969;28;20071;-74
2023/05/21 10:55:46;;;;;;;10.50;4.70;;;27.60;46.80;;;;;;5054941;28;20028;-75
2023/05/21 10:58:21;;;;;;;8.55;5.15;;;27.80;46.40;;;;;;5053233;28;20037;-75
2023/05/21 11:00:47;;;;;;;8.27;5.10;;;28.00;45.70;;;;;;5052115;28;20035;-75
2023/05/21 11:03:13;;;;;;;7.95;4.82;;;28.10;44.10;;;;;;5058334;28;20021;-74
2023/05/21 11:05:58;;;;;;;8.05;4.95;;;28.20;44.20;;;;;;5045950;28;20021;-76
2023/05/21 11:08:32;;;;;;;11.38;5.00;;;28.30;44.70;;;;;;5036646;28;20021;-78
2023/05/21 11:10:58;;;;;;;8.05;5.07;;;28.40;44.70;;;;;;5054346;28;20044;-77
2023/05/21 11:13:25;;;;;;;10.82;5.35;;;28.40;45.10;;;;;;5054625;28;20029;-78
2023/05/21 11:15:57;;;;;;;8.95;5.05;;;28.50;45.60;;;;;;5054703;28;20021;-77
2023/05/21 11:18:29;;;;;;;7.43;4.93;;;28.40;45.70;;;;;;5054115;28;20069;-77
2023/05/21 11:21:03;;;;;;;8.35;5.05;;;28.40;46.30;;;;;;5054300;28;20059;-78
2023/05/21 11:23:57;;;;;;;8.43;4.82;;;28.40;43.90;;;;;;5053684;28;20029;-78
2023/05/21 11:26:51;;;;;;;12.98;5.18;;;28.30;44.00;;;;;;5051408;28;20082;-78
2023/05/21 11:29:19;;;;;;;11.07;5.00;;;28.20;45.30;;;;;;5051922;28;20016;-77
2023/05/21 11:32:01;;;;;;;13.20;5.18;;;28.10;43.80;;;;;;5035444;28;20124;-77
2023/05/21 11:34:39;;;;;;;15.57;5.00;;;28.00;44.60;;;;;;5053776;28;20044;-78
2023/05/21 11:39:48;;;;;;;16.25;4.57;;;27.80;44.20;;;;;;5053787;28;20123;-77
2023/05/21 11:42:31;;;;;;;10.03;4.97;;;27.80;45.30;;;;;;5054110;28;20516;-77
2023/05/21 11:44:58;;;;;;;10.07;4.85;;;27.80;45.00;;;;;;5053980;28;20078;-78
2023/05/21 11:47:27;;;;;;;9.55;5.07;;;27.70;45.30;;;;;;5053698;28;20056;-77
2023/05/21 11:49:54;;;;;;;9.38;4.45;;;27.70;46.40;;;;;;5053316;28;20032;-77
2023/05/21 11:52:20;;;;;;;8.35;4.63;;;27.80;44.70;;;;;;5053526;28;20021;-77
2023/05/21 11:54:49;;;;;;;8.23;4.25;;;27.80;44.90;;;;;;5049946;28;20078;-77
2023/05/21 11:57:17;;;;;;;16.25;4.85;;;27.80;44.10;;;;;;5050773;28;20020;-77
2023/05/21 11:59:50;;;;;;;13.95;4.57;;;27.80;42.90;;;;;;5051664;28;20055;-77
2023/05/21 12:02:20;;;;;;;10.48;4.53;;;27.80;42.90;;;;;;5053271;28;20021;-76
2023/05/21 12:04:48;;;;;;;12.63;4.90;;;27.80;43.50;;;;;;5053655;28;20024;-77
2023/05/21 12:07:15;;;;;;;8.98;5.25;;;27.80;43.80;;;;;;5053592;28;20019;-77
2023/05/21 12:09:48;;;;;;;8.63;5.25;;;27.80;45.00;;;;;;5052678;28;20040;-77
2023/05/21 12:12:17;;;;;;;12.65;4.68;;;27.90;45.30;;;;;;5053159;28;20021;-76
2023/05/21 12:14:46;;;;;;;9.25;5.00;;;28.00;45.10;;;;;;5053310;28;20056;-76
2023/05/21 12:17:15;;;;;;;10.45;5.30;;;28.00;44.30;;;;;;5052924;28;20025;-77
2023/05/21 12:19:41;;;;;;;8.10;4.70;;;28.00;44.40;;;;;;5035076;28;20037;-76
2023/05/21 12:22:08;;;;;;;8.38;4.82;;;28.10;44.10;;;;;;5053405;28;20538;-77
2023/05/21 12:24:35;;;;;;;11.15;5.40;;;28.10;44.70;;;;;;5053064;28;20028;-77
2023/05/21 12:27:02;;;;;;;12.13;5.10;;;28.20;45.30;;;;;;5053148;28;20024;-77
2023/05/21 12:29:30;;;;;;;6.82;3.90;;;28.20;44.90;;;;;;5053186;28;20029;-77
2023/05/21 12:32:00;;;;;;;7.53;4.28;;;28.20;43.40;;;;;;5052692;28;20025;-78
2023/05/21 12:34:43;;;;;;;8.65;4.50;;;28.30;42.20;;;;;;5052881;28;20056;-77
2023/05/21 12:37:11;;;;;;;9.00;4.32;;;28.20;42.30;;;;;;5052845;28;20385;-77
2023/05/21 12:39:45;;;;;;;11.52;5.07;;;28.20;42.20;;;;;;5052312;28;20037;-77
2023/05/21 12:42:11;;;;;;;12.27;4.43;;;28.20;43.20;;;;;;5052435;28;20032;-77
2023/05/21 12:44:44;;;;;;;13.23;4.93;;;28.20;44.30;;;;;;5052995;28;20030;-77
2023/05/21 12:47:10;;;;;;;11.95;4.47;;;28.20;45.10;;;;;;5052583;28;20090;-77
2023/05/21 12:49:40;;;;;;;8.23;4.70;;;28.30;45.20;;;;;;5052469;28;20025;-78
2023/05/21 12:52:10;;;;;;;7.22;4.72;;;28.30;44.50;;;;;;5052478;28;20068;-76
2023/05/21 12:54:38;;;;;;;10.00;4.60;;;28.30;43.90;;;;;;5052475;28;20032;-77
2023/05/21 12:57:07;;;;;;;9.30;4.28;;;28.30;42.20;;;;;;5052679;28;20062;-78
2023/05/21 13:00:00;;;;;;;9.43;4.50;;;28.20;42.20;;;;;;5052680;28;20025;-78
2023/05/21 13:02:31;;;;;;;9.00;4.50;;;28.10;42.20;;;;;;5048167;28;20087;-78
2023/05/21 13:05:03;;;;;;;10.50;4.72;;;28.00;42.00;;;;;;5034304;28;20431;-76
2023/05/21 13:07:33;;;;;;;7.82;4.25;;;27.90;42.80;;;;;;5052226;28;20032;-75
2023/05/21 13:10:00;;;;;;;7.65;4.55;;;27.80;43.20;;;;;;5050912;28;20082;-75
2023/05/21 13:12:27;;;;;;;6.25;4.57;;;27.80;43.50;;;;;;5049603;28;20029;-76
2023/05/21 13:14:55;;;;;;;7.13;4.47;;;27.70;44.40;;;;;;5050581;28;20021;-75
2023/05/21 13:17:21;;;;;;;8.55;4.63;;;27.70;44.60;;;;;;5049203;28;20477;-75
2023/05/21 13:20:20;;;;;;;10.18;4.97;;;27.70;44.10;;;;;;5050683;28;20170;-76
2023/05/21 13:22:47;;;;;;;8.32;4.47;;;27.60;43.40;;;;;;5049367;28;20055;-75
2023/05/21 13:25:19;;;;;;;11.13;4.20;;;27.60;43.40;;;;;;5051587;28;20013;-75
2023/05/21 13:27:45;;;;;;;13.40;4.93;;;27.60;44.30;;;;;;5052564;28;20116;-76
2023/05/21 13:30:11;;;;;;;6.32;4.50;;;27.50;43.80;;;;;;5034127;28;20424;-77
2023/05/21 13:32:37;;;;;;;9.52;5.15;;;27.50;43.00;;;;;;5052370;28;20074;-76
2023/05/21 13:35:04;;;;;;;8.35;4.60;;;27.50;43.60;;;;;;5034394;28;20087;-75
2023/05/21 13:37:30;;;;;;;9.50;4.45;;;27.50;44.00;;;;;;5052036;28;20159;-75
2023/05/21 13:39:56;;;;;;;9.23;4.78;;;27.50;44.20;;;;;;5052207;28;20488;-75
2023/05/21 13:42:22;;;;;;;7.18;4.18;;;27.50;43.30;;;;;;5034412;28;20025;-75
2023/05/21 13:44:48;;;;;;;6.63;4.60;;;27.50;43.50;;;;;;5052227;28;20029;-75
2023/05/21 13:47:14;;;;;;;10.23;4.15;;;27.50;44.30;;;;;;5051847;28;20029;-75
2023/05/21 13:49:40;;;;;;;9.00;5.18;;;27.50;44.50;;;;;;5052288;28;20021;-75
2023/05/21 13:52:07;;;;;;;11.63;5.18;;;27.50;44.80;;;;;;5052142;28;20037;-75
2023/05/21 13:54:33;;;;;;;10.20;4.72;;;27.50;45.60;;;;;;5052011;28;20025;-75
2023/05/21 13:56:59;;;;;;;10.32;4.55;;;27.50;44.30;;;;;;5051604;28;20063;-76